Time;durP1;ratioP1;P1;durP2;ratioP2;P2;SDS_P1;SDS_P2;PMS_P1;PMS_P2;Temp;Humidity;BMP_temperature;BMP_pressure;BME280_temperature;BME280_humidity;BME280_pressure;Samples;Min_cycle;Max_cycle;Signal;HPM_P1;HPM_P2
2023/03/15 00:07:38;;;;;;;2.33;0.70;;;;;;;20.25;32.64;100617.69;21072835;28;20553;-68
2023/03/15 00:17:39;;;;;;;4.00;0.98;;;;;;;20.29;32.80;100638.19;21078309;28;20109;-70
2023/03/15 00:27:40;;;;;;;4.35;0.90;;;;;;;20.35;33.00;100639.03;21078272;28;20043;-70
2023/03/15 00:37:42;;;;;;;1.45;0.80;;;;;;;20.43;32.91;100649.53;21072228;28;20036;-73
2023/03/15 00:47:43;;;;;;;3.20;0.70;;;;;;;20.47;33.06;100663.69;21066840;28;20090;-69
2023/03/15 00:57:48;;;;;;;3.45;0.80;;;;;;;20.56;32.67;100685.09;21055731;28;20313;-70
2023/03/15 01:07:53;;;;;;;1.33;0.90;;;;;;;20.59;32.74;100700.38;21059698;28;20499;-72
2023/03/15 01:17:58;;;;;;;2.40;0.80;;;;;;;20.66;33.18;100723.13;21068092;28;20120;-70
2023/03/15 01:27:59;;;;;;;0.50;0.50;;;;;;;20.20;32.71;100648.25;21071467;28;20040;-69
2023/03/15 01:38:01;;;;;;;0.80;0.60;;;;;;;20.70;33.10;100724.22;21062329;28;20040;-70
2023/03/15 01:48:02;;;;;;;0.40;0.40;;;;;;;20.71;33.01;100739.81;21066744;28;20048;-71
2023/03/15 01:58:06;;;;;;;1.27;0.70;;;;;;;20.66;33.28;100742.59;21063088;28;20040;-70
2023/03/15 02:08:08;;;;;;;0.80;0.70;;;;;;;20.73;33.42;100767.34;21068957;28;20433;-69
2023/03/15 02:18:09;;;;;;;4.97;0.70;;;;;;;20.74;33.64;100769.81;21078713;28;20495;-70
2023/03/15 02:28:14;;;;;;;4.35;0.98;;;;;;;20.73;33.24;100759.00;21079898;28;20028;-70
2023/03/15 02:38:16;;;;;;;5.38;0.80;;;;;;;20.65;33.44;100749.28;21065461;28;20477;-70
2023/03/15 02:48:19;;;;;;;4.05;0.90;;;;;;;20.71;33.16;100762.06;21085439;28;20491;-71
2023/03/15 02:58:23;;;;;;;1.42;0.75;;;;;;;20.71;32.92;100766.78;21083547;28;20052;-69
2023/03/15 03:08:24;;;;;;;1.30;0.73;;;;;;;20.56;33.46;100728.75;21081761;28;20148;-70
2023/03/15 03:18:34;;;;;;;1.45;0.88;;;;;;;20.67;32.98;100808.25;21080841;28;20048;-70
2023/03/15 03:28:35;;;;;;;3.50;0.90;;;;;;;20.69;34.32;100794.88;21051611;28;20135;-70
2023/03/15 03:38:37;;;;;;;4.35;0.80;;;;;;;20.68;34.82;100787.66;21068534;28;20105;-69
2023/03/15 03:48:38;;;;;;;9.77;0.98;;;;;;;20.71;34.73;100805.69;21077029;28;20032;-69
2023/03/15 03:58:40;;;;;;;2.00;0.90;;;;;;;20.70;34.37;100788.19;21073711;28;20070;-71
2023/03/15 04:08:41;;;;;;;1.73;0.50;;;;;;;20.68;34.04;100798.78;21072065;28;20082;-70
2023/03/15 04:18:45;;;;;;;3.60;1.15;;;;;;;20.68;34.26;100806.28;21067684;28;20125;-69
2023/03/15 04:28:47;;;;;;;1.67;0.98;;;;;;;20.52;34.06;100772.13;21076152;28;20457;-69
2023/03/15 04:38:49;;;;;;;1.08;0.60;;;;;;;20.65;33.77;100781.81;21075605;28;20040;-69
2023/03/15 04:48:50;;;;;;;2.05;0.60;;;;;;;20.54;33.65;100758.78;21076376;28;20145;-69
2023/03/15 04:58:52;;;;;;;2.28;0.68;;;;;;;20.62;33.51;100799.91;21075688;28;20070;-70
2023/03/15 05:08:53;;;;;;;5.38;1.10;;;;;;;20.61;34.62;100791.84;21068122;28;20020;-70
2023/03/15 05:18:57;;;;;;;4.97;0.98;;;;;;;20.59;34.41;100794.06;21067829;28;20392;-70
2023/03/15 05:28:59;;;;;;;8.73;1.20;;;;;;;20.60;34.21;100802.13;21074873;28;20028;-70
2023/03/15 05:39:03;;;;;;;6.45;1.48;;;;;;;20.59;34.09;100813.53;21074166;28;20040;-70
2023/03/15 05:49:04;;;;;;;1.77;0.80;;;;;;;20.56;33.97;100817.69;21083131;28;20367;-70
2023/03/15 05:59:06;;;;;;;3.05;1.05;;;;;;;20.46;33.87;100803.81;21087291;28;20093;-70
2023/03/15 06:09:07;;;;;;;1.67;0.95;;;;;;;20.53;33.72;100819.13;21090780;28;20487;-70
2023/03/15 06:19:09;;;;;;;3.40;1.52;;;;;;;20.47;34.04;100797.13;21090469;28;20052;-70
2023/03/15 06:29:10;;;;;;;3.45;1.02;;;;;;;20.50;34.05;100807.72;21090115;28;20089;-70
2023/03/15 06:39:18;;;;;;;0.75;0.73;;;;;;;20.49;33.59;100808.84;21085475;28;20410;-70
2023/03/15 06:49:19;;;;;;;2.35;0.82;;;;;;;20.47;33.50;100824.91;21085982;28;20032;-69
2023/03/15 06:59:20;;;;;;;1.58;0.70;;;;;;;20.42;33.62;100805.47;21069791;28;20869;-70
2023/03/15 07:09:22;;;;;;;1.42;0.82;;;;;;;20.43;33.38;100812.69;21084966;28;20433;-70
2023/03/15 07:19:23;;;;;;;1.50;0.90;;;;;;;20.39;33.49;100834.69;21080101;28;20074;-70
2023/03/15 07:29:25;;;;;;;2.28;0.73;;;;;;;20.23;33.41;100822.72;21075894;28;20036;-70
2023/03/15 07:39:27;;;;;;;1.50;0.70;;;;;;;20.35;33.08;100854.97;21059202;28;20454;-70
2023/03/15 07:49:30;;;;;;;0.77;0.68;;;;;;;20.31;33.02;100846.34;21071057;28;20032;-70
2023/03/15 07:59:32;;;;;;;0.65;0.65;;;;;;;19.76;31.96;100782.19;21075641;28;20373;-69
2023/03/15 08:09:33;;;;;;;0.90;0.68;;;;;;;20.29;31.80;100879.97;21060266;28;20032;-69
2023/03/15 08:19:35;;;;;;;0.50;0.50;;;;;;;20.31;31.53;100866.63;21074865;28;20560;-71
2023/03/15 08:29:36;;;;;;;1.20;0.55;;;;;;;20.34;31.47;100881.91;21075345;28;20110;-69
2023/03/15 08:39:38;;;;;;;0.82;0.70;;;;;;;20.36;31.52;100881.63;21072819;28;20413;-70
2023/03/15 08:49:40;;;;;;;0.82;0.50;;;;;;;20.37;31.25;100911.09;21072960;28;20120;-70
2023/03/15 08:59:41;;;;;;;0.43;0.43;;;;;;;20.28;31.07;100911.63;21077168;28;20043;-70
2023/03/15 09:09:46;;;;;;;0.55;0.50;;;;;;;20.23;30.83;100903.31;21076154;28;20052;-70
2023/03/15 09:19:48;;;;;;;0.50;0.50;;;;;;;20.13;30.77;100917.19;21071716;28;20065;-70
2023/03/15 09:29:49;;;;;;;0.50;0.50;;;;;;;20.25;30.74;100937.22;21076050;28;20066;-69
2023/03/15 09:39:51;;;;;;;0.50;0.50;;;;;;;20.24;30.82;100940.25;21076139;28;20078;-70
2023/03/15 09:50:04;;;;;;;1.02;0.52;;;;;;;20.22;31.25;100962.78;21028719;28;20141;-70
2023/03/15 10:00:11;;;;;;;0.40;0.40;;;;;;;20.25;30.89;100966.94;21039224;28;20085;-70
2023/03/15 10:10:27;;;;;;;0.95;0.52;;;;;;;20.22;31.13;100973.88;21071838;28;20040;-71
2023/03/15 10:20:38;;;;;;;0.88;0.70;;;;;;;20.23;30.92;100975.56;21071128;28;20390;-69
2023/03/15 10:31:01;;;;;;;0.98;0.60;;;;;;;20.25;30.79;100990.03;21049210;28;20156;-69
2023/03/15 10:41:05;;;;;;;0.47;0.47;;;;;;;20.16;30.87;101007.47;21076690;28;20040;-69
2023/03/15 10:51:24;;;;;;;0.75;0.60;;;;;;;20.21;31.09;101038.91;21073638;28;20070;-70
2023/03/15 11:01:33;;;;;;;7.85;0.90;;;;;;;20.25;32.27;101067.81;21074919;28;20096;-69
2023/03/15 11:11:47;;;;;;;;;;;;;;;20.25;33.01;101073.38;21069382;28;20040;-69
2023/03/15 11:21:50;;;;;;;10.65;1.00;;;;;;;20.17;32.63;101056.41;21083636;28;19916;-69
2023/03/15 11:31:52;;;;;;;2.53;0.80;;;;;;;20.08;32.64;101041.38;21077215;28;20383;-69
2023/03/15 11:42:04;;;;;;;7.45;1.20;;;;;;;20.19;32.71;101113.34;21077595;28;20156;-71
2023/03/15 11:52:07;;;;;;;5.80;0.90;;;;;;;20.04;32.80;101121.63;21074626;28;20040;-71
2023/03/15 12:02:13;;;;;;;5.03;0.93;;;;;;;20.22;32.75;101150.88;21081977;28;20044;-70
2023/03/15 12:12:24;;;;;;;3.45;0.90;;;;;;;20.20;33.03;101172.53;21081499;28;20047;-70
2023/03/15 12:22:32;;;;;;;5.22;1.35;;;;;;;20.20;32.64;101198.38;21079288;28;20044;-70
2023/03/15 12:32:46;;;;;;;3.13;0.83;;;;;;;20.17;32.88;101196.16;21080373;28;20020;-70
2023/03/15 12:42:47;;;;;;;1.88;0.60;;;;;;;20.18;32.25;101183.94;21078633;28;20044;-70
2023/03/15 12:52:57;;;;;;;1.65;0.60;;;;;;;20.15;32.62;101200.31;21067260;28;20036;-70
2023/03/15 13:03:04;;;;;;;1.48;0.90;;;;;;;20.11;32.17;101202.78;20993700;28;20048;-70
2023/03/15 13:13:33;;;;;;;1.25;0.60;;;;;;;20.02;32.65;101202.47;20997195;28;20472;-70
2023/03/15 13:23:36;;;;;;;1.25;0.50;;;;;;;20.01;32.76;101211.88;20992762;28;20093;-70
2023/03/15 13:33:38;;;;;;;2.50;0.52;;;;;;;19.92;32.42;101229.31;20991513;28;20090;-70
2023/03/15 13:43:41;;;;;;;0.57;0.57;;;;;;;19.95;32.61;101278.81;20992204;28;20109;-70
2023/03/15 13:53:42;;;;;;;0.82;0.65;;;;;;;19.91;32.98;101277.66;20991615;28;20040;-70
2023/03/15 14:03:50;;;;;;;0.80;0.73;;;;;;;19.85;32.52;101284.28;20991691;28;20326;-70
2023/03/15 14:14:11;;;;;;;2.50;0.70;;;;;;;19.68;32.79;101268.59;21007472;28;20042;-70
2023/03/15 14:24:17;;;;;;;0.70;0.60;;;;;;;19.83;32.73;101297.56;21006226;28;20044;-70
2023/03/15 14:34:35;;;;;;;0.60;0.60;;;;;;;19.87;32.81;101310.66;21005237;28;20062;-70
2023/03/15 14:44:39;;;;;;;0.70;0.70;;;;;;;19.94;32.20;101305.75;21004996;28;20067;-70
2023/03/15 14:54:47;;;;;;;1.05;0.77;;;;;;;19.98;32.28;101298.56;21004423;28;20037;-70
2023/03/15 15:04:51;;;;;;;1.40;0.82;;;;;;;20.05;32.37;101312.19;21003477;28;20106;-70
2023/03/15 15:14:52;;;;;;;1.15;0.50;;;;;;;19.98;31.98;101281.06;21001860;28;20032;-70
2023/03/15 15:24:55;;;;;;;1.02;0.77;;;;;;;20.03;31.92;101287.47;21001538;28;20055;-70
2023/03/15 15:34:57;;;;;;;0.80;0.75;;;;;;;20.20;32.09;101292.03;21000805;28;20032;-70
2023/03/15 15:45:02;;;;;;;0.70;0.52;;;;;;;20.28;32.18;101283.19;20999836;28;20040;-70
2023/03/15 15:55:19;;;;;;;0.80;0.60;;;;;;;20.25;32.28;101279.03;20999516;28;20148;-70
2023/03/15 16:05:26;;;;;;;1.33;0.43;;;;;;;20.37;31.93;101297.41;20998423;28;20462;-70
2023/03/15 16:15:30;;;;;;;0.50;0.50;;;;;;;20.30;31.93;101262.38;20998017;28;20032;-70
2023/03/15 16:25:38;;;;;;;0.52;0.52;;;;;;;20.33;31.80;101271.25;20996404;28;20067;-70
2023/03/15 16:35:39;;;;;;;0.88;0.52;;;;;;;20.50;32.06;101297.81;20994783;28;20040;-71
2023/03/15 16:45:40;;;;;;;0.47;0.47;;;;;;;20.52;31.44;101298.38;20994975;28;20102;-70
2023/03/15 16:55:42;;;;;;;0.47;0.40;;;;;;;20.53;32.05;101293.66;20994504;28;20032;-70
2023/03/15 17:05:45;;;;;;;1.42;0.82;;;;;;;20.58;31.60;101296.47;20994215;28;20040;-70
2023/03/15 17:15:46;;;;;;;0.50;0.50;;;;;;;20.44;32.02;101259.13;20993523;28;20066;-70
2023/03/15 17:25:48;;;;;;;1.63;0.40;;;;;;;20.47;31.99;101264.13;20993386;28;20565;-70
2023/03/15 17:35:53;;;;;;;0.50;0.40;;;;;;;20.50;32.22;101263.63;20992983;28;20040;-70
2023/03/15 17:45:54;;;;;;;1.20;0.40;;;;;;;20.31;32.02;101239.03;21006023;28;20044;-71
2023/03/15 17:55:59;;;;;;;0.40;0.40;;;;;;;20.62;32.17;101267.03;21008768;28;20032;-71
2023/03/15 18:06:04;;;;;;;0.50;0.50;;;;;;;20.69;31.76;101234.22;21007944;28;20040;-71
2023/03/15 18:16:05;;;;;;;0.40;0.40;;;;;;;20.28;31.92;101161.75;21007358;28;20037;-71
2023/03/15 18:26:10;;;;;;;0.40;0.40;;;;;;;20.53;31.65;101208.31;21004953;28;20040;-69
2023/03/15 18:36:14;;;;;;;1.85;0.50;;;;;;;20.52;31.92;101200.22;21005469;28;20040;-69
2023/03/15 18:46:24;;;;;;;0.90;0.60;;;;;;;20.71;31.92;101215.34;21004629;28;20094;-69
2023/03/15 18:56:33;;;;;;;0.40;0.40;;;;;;;20.72;31.91;101207.81;21002811;28;20040;-69
2023/03/15 19:06:37;;;;;;;1.20;0.50;;;;;;;20.60;31.79;101190.53;21059755;28;20552;-77
2023/03/15 19:16:38;;;;;;;0.98;0.60;;;;;;;20.68;31.57;101210.31;21003010;28;20554;-78
2023/03/15 19:26:43;;;;;;;0.80;0.60;;;;;;;20.69;31.45;101208.38;21052222;28;20039;-76
2023/03/15 19:36:44;;;;;;;0.90;0.55;;;;;;;20.64;31.46;101214.75;21072131;28;20557;-75
2023/03/15 19:46:46;;;;;;;0.47;0.47;;;;;;;20.65;31.51;101205.28;21049470;28;20195;-75
2023/03/15 19:56:47;;;;;;;2.67;0.50;;;;;;;20.62;31.78;101216.09;21079829;28;20036;-72
2023/03/15 20:06:49;;;;;;;1.08;0.57;;;;;;;20.62;31.91;101216.97;21081185;28;20040;-69
2023/03/15 20:16:53;;;;;;;1.67;0.70;;;;;;;20.53;31.75;101201.94;21080925;28;20069;-69
2023/03/15 20:26:54;;;;;;;7.63;1.15;;;;;;;20.56;31.61;101237.50;21080501;28;20070;-70
2023/03/15 20:36:58;;;;;;;3.75;0.73;;;;;;;20.54;32.03;101223.06;21080317;28;20028;-70
2023/03/15 20:47:00;;;;;;;1.52;0.40;;;;;;;20.48;31.77;101235.22;21078770;28;20407;-70
2023/03/15 20:57:05;;;;;;;0.90;0.50;;;;;;;20.44;31.99;101236.88;21079006;28;20039;-70
2023/03/15 21:07:07;;;;;;;0.75;0.40;;;;;;;20.51;32.04;101270.84;21077115;28;20533;-70
2023/03/15 21:17:08;;;;;;;0.73;0.40;;;;;;;20.41;31.67;101260.47;21076606;28;20032;-71
2023/03/15 21:27:12;;;;;;;1.38;0.50;;;;;;;20.42;31.87;101269.66;21076931;28;20070;-71
2023/03/15 21:37:14;;;;;;;1.17;0.52;;;;;;;20.43;32.21;101271.31;21076339;28;20461;-71
2023/03/15 21:47:16;;;;;;;1.85;0.40;;;;;;;20.37;32.18;101275.19;21075412;28;20097;-70
2023/03/15 21:57:21;;;;;;;0.63;0.55;;;;;;;20.45;32.00;101288.59;21075736;28;20032;-70
2023/03/15 22:07:22;;;;;;;0.80;0.40;;;;;;;20.41;32.41;101315.25;21074692;28;20479;-71
2023/03/15 22:17:23;;;;;;;0.82;0.68;;;;;;;20.39;32.08;101318.28;21074582;28;20032;-69
2023/03/15 22:27:27;;;;;;;1.38;0.40;;;;;;;20.21;32.37;101304.84;21078290;28;20044;-70
2023/03/15 22:37:39;;;;;;;;;;;;;;;;;;;;;
2023/03/15 22:47:42;;;;;;;0.88;0.40;;;;;;;20.35;32.14;101380.25;21087265;28;20048;-70
2023/03/15 22:57:44;;;;;;;0.45;0.30;;;;;;;20.27;32.19;101365.72;21087609;28;20387;-70
2023/03/15 23:07:50;;;;;;;1.80;0.50;;;;;;;20.31;31.77;101394.66;21087139;28;20043;-70
2023/03/15 23:17:53;;;;;;;2.90;0.47;;;;;;;20.19;32.21;101399.56;21085291;28;20036;-69
2023/03/15 23:27:55;;;;;;;0.70;0.50;;;;;;;20.26;32.10;101435.47;21085253;28;20471;-70
2023/03/15 23:37:57;;;;;;;0.70;0.40;;;;;;;20.24;32.06;101454.34;21084964;28;20040;-70
2023/03/15 23:47:58;;;;;;;0.50;0.50;;;;;;;20.22;32.07;101474.06;21083308;28;20040;-71
2023/03/15 23:58:00;;;;;;;2.05;0.50;;;;;;;20.19;31.50;101490.41;21083362;28;20052;-69
